Time;durP1;ratioP1;P1;durP2;ratioP2;P2;SDS_P1;SDS_P2;PMS_P1;PMS_P2;Temp;Humidity;BMP_temperature;BMP_pressure;BME280_temperature;BME280_humidity;BME280_pressure;Samples;Min_cycle;Max_cycle;Signal;HPM_P1;HPM_P2
2022/06/09 00:00:22;;;;;;;27.55;11.38;;;;;;;;;;5043045;28;20111;-66
2022/06/09 00:02:49;;;;;;;26.20;11.70;;;;;;;;;;5027725;28;20048;-66
2022/06/09 00:05:16;;;;;;;23.27;11.82;;;;;;;;;;5041851;28;20418;-66
2022/06/09 00:07:43;;;;;;;25.33;10.77;;;;;;;;;;5041561;28;20047;-65
2022/06/09 00:10:11;;;;;;;25.52;11.48;;;;;;;;;;5042592;28;20554;-65
2022/06/09 00:12:38;;;;;;;23.02;10.95;;;;;;;;;;5039668;28;20041;-65
2022/06/09 00:15:06;;;;;;;22.58;11.30;;;;;;;;;;5030226;28;20320;-65
2022/06/09 00:17:32;;;;;;;23.85;10.20;;;;;;;;;;5039241;28;20038;-66
2022/06/09 00:19:58;;;;;;;27.13;11.15;;;;;;;;;;5032277;28;20163;-65
2022/06/09 00:22:24;;;;;;;30.80;11.23;;;;;;;;;;5030049;28;20357;-65
2022/06/09 00:24:50;;;;;;;28.33;11.05;;;;;;;;;;5045054;28;20048;-66
2022/06/09 00:27:16;;;;;;;26.55;10.73;;;;;;;;;;5042533;28;20049;-66
2022/06/09 00:29:42;;;;;;;23.88;10.45;;;;;;;;;;5039626;28;20088;-65
2022/06/09 00:32:08;;;;;;;24.05;10.45;;;;;;;;;;5043175;28;20118;-65
2022/06/09 00:34:35;;;;;;;19.90;9.95;;;;;;;;;;5045746;28;20037;-66
2022/06/09 00:37:01;;;;;;;29.23;11.32;;;;;;;;;;5044221;28;20041;-65
2022/06/09 00:39:27;;;;;;;21.75;9.40;;;;;;;;;;5037062;28;20399;-65
2022/06/09 00:41:53;;;;;;;22.05;9.35;;;;;;;;;;5033031;28;20043;-65
2022/06/09 00:44:21;;;;;;;22.55;8.93;;;;;;;;;;5039190;28;20114;-66
2022/06/09 00:46:53;;;;;;;19.60;8.80;;;;;;;;;;5032656;28;20041;-65
2022/06/09 00:49:24;;;;;;;24.40;9.75;;;;;;;;;;5036934;28;20036;-65
2022/06/09 00:51:54;;;;;;;26.55;9.20;;;;;;;;;;5039637;28;20048;-65
2022/06/09 00:54:22;;;;;;;21.70;9.55;;;;;;;;;;5019240;28;20048;-65
2022/06/09 00:56:53;;;;;;;18.58;9.45;;;;;;;;;;5040192;28;20047;-65
2022/06/09 00:59:21;;;;;;;21.20;8.45;;;;;;;;;;5039402;28;20061;-65
2022/06/09 01:01:47;;;;;;;21.65;8.55;;;;;;;;;;5049381;28;20402;-65
2022/06/09 01:04:14;;;;;;;16.48;7.93;;;;;;;;;;5036667;28;20547;-65
2022/06/09 01:06:48;;;;;;;24.60;8.63;;;;;;;;;;5021585;28;20073;-65
2022/06/09 01:09:16;;;;;;;20.58;7.53;;;;;;;;;;5031494;28;20084;-65
2022/06/09 01:11:43;;;;;;;17.60;7.63;;;;;;;;;;5043293;28;20129;-65
2022/06/09 01:14:13;;;;;;;17.80;7.25;;;;;;;;;;5035602;28;20035;-65
2022/06/09 01:16:42;;;;;;;20.95;7.93;;;;;;;;;;5038451;28;20076;-65
2022/06/09 01:19:08;;;;;;;23.92;8.48;;;;;;;;;;5045639;28;20041;-65
2022/06/09 01:22:01;;;;;;;24.60;8.73;;;;;;;;;;5037482;28;20041;-65
2022/06/09 01:24:27;;;;;;;20.42;7.65;;;;;;;;;;5036132;28;20067;-65
2022/06/09 01:27:12;;;;;;;21.77;8.00;;;;;;;;;;5053188;28;20118;-65
2022/06/09 01:30:03;;;;;;;21.38;8.02;;;;;;;;;;5038804;28;20399;-65
2022/06/09 01:32:39;;;;;;;22.40;7.43;;;;;;;;;;5048966;28;20045;-65
2022/06/09 01:35:18;;;;;;;19.63;7.47;;;;;;;;;;5044548;28;20044;-65
2022/06/09 01:37:47;;;;;;;22.83;7.97;;;;;;;;;;5044340;28;20513;-65
2022/06/09 01:40:14;;;;;;;18.23;7.72;;;;;;;;;;5042405;28;20041;-65
2022/06/09 01:42:48;;;;;;;22.55;8.10;;;;;;;;;;5053475;28;20048;-65
2022/06/09 01:45:20;;;;;;;23.08;7.68;;;;;;;;;;5046648;28;20033;-66
2022/06/09 01:47:52;;;;;;;22.42;7.70;;;;;;;;;;5041023;28;20116;-65
2022/06/09 01:50:30;;;;;;;24.17;7.78;;;;;;;;;;5042941;28;20087;-65
2022/06/09 01:52:58;;;;;;;22.77;7.80;;;;;;;;;;5047728;28;20040;-65
2022/06/09 01:55:25;;;;;;;21.73;8.15;;;;;;;;;;5035945;28;20051;-65
2022/06/09 01:57:54;;;;;;;15.90;7.07;;;;;;;;;;5027179;28;20090;-65
2022/06/09 02:00:20;;;;;;;18.23;7.68;;;;;;;;;;5042240;28;20033;-65
2022/06/09 02:03:03;;;;;;;21.65;8.23;;;;;;;;;;5047371;28;20045;-65
2022/06/09 02:05:31;;;;;;;21.38;8.18;;;;;;;;;;5031500;28;20044;-65
2022/06/09 02:07:59;;;;;;;19.33;7.90;;;;;;;;;;5049605;28;20061;-65
2022/06/09 02:10:29;;;;;;;17.00;7.85;;;;;;;;;;5108273;22;20039;-66
2022/06/09 02:12:55;;;;;;;17.23;7.88;;;;;;;;;;5094375;28;20073;-66
2022/06/09 02:15:24;;;;;;;21.88;8.27;;;;;;;;;;5108349;28;20114;-66
2022/06/09 02:17:51;;;;;;;20.00;8.55;;;;;;;;;;5110922;28;20189;-66
2022/06/09 02:20:18;;;;;;;18.17;8.38;;;;;;;;;;5095092;28;20040;-65
2022/06/09 02:22:45;;;;;;;25.42;9.88;;;;;;;;;;5092125;28;20412;-66
2022/06/09 02:25:11;;;;;;;17.90;7.80;;;;;;;;;;5092171;28;20504;-66
2022/06/09 02:27:38;;;;;;;19.88;8.52;;;;;;;;;;5092328;28;20028;-66
2022/06/09 02:30:04;;;;;;;31.25;8.68;;;;;;;;;;5092189;28;20044;-66
2022/06/09 02:32:32;;;;;;;20.80;9.20;;;;;;;;;;5090987;28;20032;-66
2022/06/09 02:34:58;;;;;;;25.23;9.45;;;;;;;;;;5093342;28;20051;-66
2022/06/09 02:37:24;;;;;;;23.33;9.18;;;;;;;;;;5083908;28;20047;-66
2022/06/09 02:39:50;;;;;;;21.80;9.10;;;;;;;;;;5091107;28;20067;-66
2022/06/09 02:42:16;;;;;;;22.23;9.50;;;;;;;;;;5093068;28;20558;-66
2022/06/09 02:44:42;;;;;;;23.48;10.27;;;;;;;;;;5091162;28;20482;-66
2022/06/09 02:47:08;;;;;;;23.13;9.52;;;;;;;;;;5093792;28;20059;-66
2022/06/09 02:49:35;;;;;;;24.60;9.75;;;;;;;;;;5082638;28;20040;-66
2022/06/09 02:52:01;;;;;;;24.40;10.40;;;;;;;;;;5092237;28;20036;-66
2022/06/09 02:54:27;;;;;;;30.63;10.95;;;;;;;;;;5089433;28;20035;-66
2022/06/09 02:56:53;;;;;;;25.92;10.38;;;;;;;;;;5092141;28;20035;-66
2022/06/09 02:59:19;;;;;;;28.20;11.10;;;;;;;;;;5087866;28;20566;-65
2022/06/09 03:01:45;;;;;;;27.83;11.13;;;;;;;;;;5090474;28;20044;-66
2022/06/09 03:04:12;;;;;;;32.95;11.93;;;;;;;;;;5085129;28;20035;-66
2022/06/09 03:06:38;;;;;;;35.17;11.75;;;;;;;;;;5092737;28;20118;-66
2022/06/09 03:09:04;;;;;;;36.63;11.85;;;;;;;;;;5089518;28;20047;-66
2022/06/09 03:11:30;;;;;;;29.77;11.77;;;;;;;;;;5087136;28;20074;-66
2022/06/09 03:13:56;;;;;;;28.00;11.52;;;;;;;;;;5091977;28;20046;-66
2022/06/09 03:16:22;;;;;;;32.42;11.80;;;;;;;;;;5089412;28;20588;-66
2022/06/09 03:18:48;;;;;;;31.27;11.55;;;;;;;;;;5087665;28;20055;-66
2022/06/09 03:21:14;;;;;;;26.27;10.57;;;;;;;;;;5089456;28;20039;-66
2022/06/09 03:23:41;;;;;;;28.05;10.80;;;;;;;;;;5090028;28;20036;-66
2022/06/09 03:26:07;;;;;;;27.38;10.52;;;;;;;;;;5087226;28;20080;-66
2022/06/09 03:28:34;;;;;;;23.70;9.52;;;;;;;;;;5088936;28;20040;-66
2022/06/09 03:31:00;;;;;;;24.00;9.52;;;;;;;;;;5074151;28;20072;-66
2022/06/09 03:33:26;;;;;;;26.27;9.75;;;;;;;;;;5091214;28;20036;-65
2022/06/09 03:35:52;;;;;;;28.83;10.02;;;;;;;;;;5096020;28;20043;-66
2022/06/09 03:38:18;;;;;;;19.00;9.90;;;;;;;;;;5090798;28;20047;-66
2022/06/09 03:40:44;;;;;;;24.40;9.85;;;;;;;;;;5086252;28;20059;-66
2022/06/09 03:43:10;;;;;;;19.60;9.38;;;;;;;;;;5088360;28;20157;-66
2022/06/09 03:45:36;;;;;;;25.55;8.70;;;;;;;;;;5089193;28;20473;-66
2022/06/09 03:48:03;;;;;;;26.90;9.65;;;;;;;;;;5088178;28;20301;-66
2022/06/09 03:50:30;;;;;;;18.45;8.95;;;;;;;;;;5084411;28;20500;-66
2022/06/09 03:52:56;;;;;;;21.23;8.50;;;;;;;;;;5087687;28;20051;-66
2022/06/09 03:55:23;;;;;;;24.40;9.07;;;;;;;;;;5087204;28;20028;-66
2022/06/09 03:57:49;;;;;;;25.15;8.95;;;;;;;;;;5088540;28;20032;-65
2022/06/09 04:00:25;;;;;;;24.42;10.05;;;;;;;;;;5080264;28;20036;-65
2022/06/09 04:02:51;;;;;;;27.52;9.52;;;;;;;;;;5086752;28;20036;-65
2022/06/09 04:05:17;;;;;;;21.48;8.80;;;;;;;;;;5086324;28;20047;-66
2022/06/09 04:07:44;;;;;;;24.33;9.43;;;;;;;;;;5084826;28;20558;-65
2022/06/09 04:10:17;;;;;;;20.00;8.98;;;;;;;;;;5083397;28;20401;-66
2022/06/09 04:12:43;;;;;;;19.48;8.95;;;;;;;;;;5080776;28;20405;-65
2022/06/09 04:15:10;;;;;;;23.98;8.82;;;;;;;;;;5087258;28;20043;-66
2022/06/09 04:17:37;;;;;;;25.88;8.65;;;;;;;;;;5085779;28;20123;-66
2022/06/09 04:20:03;;;;;;;21.00;9.18;;;;;;;;;;5088982;28;20408;-65
2022/06/09 04:22:29;;;;;;;21.15;8.85;;;;;;;;;;5086532;28;20036;-66
2022/06/09 04:24:56;;;;;;;19.70;8.35;;;;;;;;;;5088744;28;20047;-65
2022/06/09 04:27:22;;;;;;;27.35;8.90;;;;;;;;;;5061241;28;20100;-66
2022/06/09 04:29:48;;;;;;;21.58;8.82;;;;;;;;;;5088883;28;20131;-65
2022/06/09 04:32:14;;;;;;;22.08;8.40;;;;;;;;;;5088506;28;20051;-66
2022/06/09 04:34:42;;;;;;;19.15;8.98;;;;;;;;;;5089966;28;20036;-65
2022/06/09 04:37:08;;;;;;;18.67;7.70;;;;;;;;;;5090002;28;20039;-65
2022/06/09 04:39:34;;;;;;;21.30;7.47;;;;;;;;;;5069127;28;20501;-65
2022/06/09 04:42:00;;;;;;;24.50;8.50;;;;;;;;;;5081881;28;20160;-66
2022/06/09 04:44:26;;;;;;;24.15;8.02;;;;;;;;;;5088311;28;20036;-66
2022/06/09 04:46:52;;;;;;;20.25;7.85;;;;;;;;;;5088591;28;20040;-66
2022/06/09 04:49:19;;;;;;;18.92;8.38;;;;;;;;;;5087316;28;20039;-65
2022/06/09 04:51:45;;;;;;;20.80;7.93;;;;;;;;;;5084818;28;20081;-66
2022/06/09 04:54:11;;;;;;;24.08;8.27;;;;;;;;;;5087669;28;20040;-66
2022/06/09 04:56:37;;;;;;;17.45;8.75;;;;;;;;;;5073030;28;20036;-66
2022/06/09 04:59:03;;;;;;;28.30;8.73;;;;;;;;;;5083464;28;20548;-65
2022/06/09 05:01:31;;;;;;;24.00;8.27;;;;;;;;;;5084687;28;20036;-66
2022/06/09 05:03:58;;;;;;;19.45;8.02;;;;;;;;;;5085807;28;20055;-66
2022/06/09 05:06:24;;;;;;;18.08;7.82;;;;;;;;;;5083986;28;20043;-66
2022/06/09 05:08:52;;;;;;;20.58;8.48;;;;;;;;;;5083934;28;20051;-65
2022/06/09 05:11:19;;;;;;;19.65;8.27;;;;;;;;;;5065101;28;20072;-65
2022/06/09 05:13:45;;;;;;;19.20;7.72;;;;;;;;;;5088303;28;20040;-66
2022/06/09 05:16:11;;;;;;;20.65;7.85;;;;;;;;;;5084924;28;20043;-66
2022/06/09 05:18:37;;;;;;;16.40;7.63;;;;;;;;;;5083995;28;20115;-65
2022/06/09 05:21:04;;;;;;;14.90;7.80;;;;;;;;;;5087075;28;20032;-66
2022/06/09 05:23:30;;;;;;;18.65;7.93;;;;;;;;;;5088602;28;20535;-65
2022/06/09 05:25:57;;;;;;;15.73;7.55;;;;;;;;;;5084477;28;20036;-66
2022/06/09 05:28:24;;;;;;;22.00;8.32;;;;;;;;;;5084508;28;20036;-65
2022/06/09 05:30:51;;;;;;;16.35;7.55;;;;;;;;;;5084558;28;20044;-65
2022/06/09 05:33:17;;;;;;;19.50;8.18;;;;;;;;;;5088052;28;20032;-66
2022/06/09 05:35:43;;;;;;;20.65;8.52;;;;;;;;;;5088069;28;20032;-65
2022/06/09 05:46:26;;;;;;;14.95;6.97;;;;;;;;;;5087748;28;20056;-65
2022/06/09 05:48:52;;;;;;;12.68;7.32;;;;;;;;;;5087223;28;20036;-65
2022/06/09 05:51:18;;;;;;;14.93;6.93;;;;;;;;;;5082140;28;20036;-65
2022/06/09 05:53:45;;;;;;;14.75;6.90;;;;;;;;;;5086670;28;20040;-65
2022/06/09 05:56:11;;;;;;;14.45;7.20;;;;;;;;;;5086457;28;20035;-64
2022/06/09 05:58:37;;;;;;;13.20;7.40;;;;;;;;;;5085148;28;20032;-65
2022/06/09 06:01:08;;;;;;;13.77;7.35;;;;;;;;;;5086387;28;20046;-65
2022/06/09 06:03:34;;;;;;;18.23;8.20;;;;;;;;;;5083467;28;20036;-65
2022/06/09 06:08:45;;;;;;;16.50;8.00;;;;;;;;;;5081471;28;22052;-65
2022/06/09 06:11:11;;;;;;;13.70;7.90;;;;;;;;;;5081211;28;20046;-64
2022/06/09 06:13:38;;;;;;;17.48;8.60;;;;;;;;;;5089069;28;20047;-64
2022/06/09 06:16:04;;;;;;;20.63;8.93;;;;;;;;;;5088408;28;20024;-65
2022/06/09 06:18:30;;;;;;;15.07;9.25;;;;;;;;;;5090966;28;20044;-65
2022/06/09 06:20:56;;;;;;;19.15;9.70;;;;;;;;;;5089146;28;20039;-64
2022/06/09 06:23:23;;;;;;;14.07;10.20;;;;;;;;;;5089748;28;20115;-64
2022/06/09 06:25:49;;;;;;;14.43;10.02;;;;;;;;;;5083880;28;20063;-64
2022/06/09 06:28:15;;;;;;;17.52;10.75;;;;;;;;;;5087781;28;20505;-64
2022/06/09 06:30:41;;;;;;;20.73;10.50;;;;;;;;;;5091245;28;20043;-64
2022/06/09 06:33:07;;;;;;;18.20;10.93;;;;;;;;;;5090577;28;20119;-64
2022/06/09 06:35:33;;;;;;;17.50;10.05;;;;;;;;;;5089262;28;20456;-64
2022/06/09 06:38:00;;;;;;;21.23;11.57;;;;;;;;;;5073339;28;20044;-65
2022/06/09 06:40:26;;;;;;;22.65;10.25;;;;;;;;;;5092417;28;20132;-65
2022/06/09 06:42:52;;;;;;;17.83;10.57;;;;;;;;;;5087281;28;20082;-65
2022/06/09 06:45:18;;;;;;;19.33;10.85;;;;;;;;;;5087637;28;20382;-65
2022/06/09 06:47:45;;;;;;;20.85;11.50;;;;;;;;;;5086292;28;20048;-65
2022/06/09 06:50:12;;;;;;;21.25;11.30;;;;;;;;;;5087067;28;20043;-65
2022/06/09 06:52:38;;;;;;;18.88;11.50;;;;;;;;;;5083239;28;20382;-65
2022/06/09 06:55:05;;;;;;;16.48;9.90;;;;;;;;;;5080666;28;20441;-65
2022/06/09 06:57:33;;;;;;;16.92;10.68;;;;;;;;;;5083766;28;20055;-65
2022/06/09 07:00:00;;;;;;;16.45;11.00;;;;;;;;;;5089891;28;20055;-64
2022/06/09 07:02:26;;;;;;;16.25;10.80;;;;;;;;;;5089198;28;20066;-65
2022/06/09 07:04:52;;;;;;;16.42;10.88;;;;;;;;;;5088512;28;20032;-65
2022/06/09 07:07:18;;;;;;;19.92;11.48;;;;;;;;;;5086171;28;20404;-64
2022/06/09 07:09:44;;;;;;;17.00;11.43;;;;;;;;;;5089433;28;20052;-65
2022/06/09 07:12:10;;;;;;;14.23;10.43;;;;;;;;;;5093121;28;20081;-65
2022/06/09 07:14:36;;;;;;;14.57;11.18;;;;;;;;;;5089548;28;20032;-65
2022/06/09 07:17:03;;;;;;;14.80;10.70;;;;;;;;;;5093130;28;20043;-65
2022/06/09 07:19:29;;;;;;;17.27;11.82;;;;;;;;;;5085893;28;20481;-64
2022/06/09 07:21:55;;;;;;;13.23;10.48;;;;;;;;;;5082640;28;20078;-65
2022/06/09 07:24:21;;;;;;;15.25;10.55;;;;;;;;;;5086757;28;20040;-64
2022/06/09 07:26:47;;;;;;;13.65;10.40;;;;;;;;;;5088400;28;20044;-65
2022/06/09 07:29:13;;;;;;;14.65;9.65;;;;;;;;;;5085558;28;20036;-64
2022/06/09 07:31:39;;;;;;;16.83;9.98;;;;;;;;;;5083776;28;20035;-64
2022/06/09 07:34:06;;;;;;;16.00;9.57;;;;;;;;;;5084877;28;20044;-64
2022/06/09 07:36:32;;;;;;;13.65;9.60;;;;;;;;;;5089637;28;20039;-65
2022/06/09 07:38:58;;;;;;;12.73;8.98;;;;;;;;;;5092502;28;20437;-64
2022/06/09 07:41:24;;;;;;;13.48;9.32;;;;;;;;;;5071968;28;20531;-64
2022/06/09 07:43:50;;;;;;;17.30;8.25;;;;;;;;;;5091045;28;20496;-65
2022/06/09 07:46:17;;;;;;;15.35;8.57;;;;;;;;;;5091394;28;20048;-65
2022/06/09 07:48:45;;;;;;;13.68;8.63;;;;;;;;;;5091002;28;20032;-64
2022/06/09 07:51:11;;;;;;;14.60;8.63;;;;;;;;;;5093007;28;20546;-63
2022/06/09 07:53:37;;;;;;;12.23;7.60;;;;;;;;;;5085076;28;20572;-64
2022/06/09 07:56:03;;;;;;;11.73;7.22;;;;;;;;;;5085479;28;20131;-64
2022/06/09 07:58:30;;;;;;;10.88;6.90;;;;;;;;;;5090341;28;21857;-63
2022/06/09 08:00:56;;;;;;;12.30;6.63;;;;;;;;;;5091488;28;20438;-64
2022/06/09 08:03:24;;;;;;;8.73;6.80;;;;;;;;;;5083373;28;20071;-63
2022/06/09 08:05:50;;;;;;;9.88;6.32;;;;;;;;;;5073244;28;20044;-64
2022/06/09 08:08:16;;;;;;;11.70;5.10;;;;;;;;;;5077596;28;20045;-64
2022/06/09 08:10:44;;;;;;;7.55;4.80;;;;;;;;;;5117479;22;20493;-66
2022/06/09 08:13:11;;;;;;;9.80;4.90;;;;;;;;;;5104009;28;20063;-65
2022/06/09 08:15:37;;;;;;;7.35;4.78;;;;;;;;;;5091033;28;20028;-66
2022/06/09 08:18:04;;;;;;;6.78;4.32;;;;;;;;;;5088688;28;20048;-65
2022/06/09 08:20:32;;;;;;;6.38;4.18;;;;;;;;;;5083950;28;20047;-65
2022/06/09 08:23:08;;;;;;;9.48;4.00;;;;;;;;;;5107157;28;20400;-65
2022/06/09 08:25:34;;;;;;;6.07;3.50;;;;;;;;;;5105620;28;20031;-65
2022/06/09 08:28:02;;;;;;;4.35;3.60;;;;;;;;;;5108468;28;20043;-64
2022/06/09 08:30:28;;;;;;;4.53;2.92;;;;;;;;;;5106506;28;20130;-65
2022/06/09 08:32:54;;;;;;;4.03;2.80;;;;;;;;;;5084850;28;20460;-65
2022/06/09 08:35:21;;;;;;;7.45;2.65;;;;;;;;;;5103770;28;20040;-65
2022/06/09 08:37:50;;;;;;;4.07;2.50;;;;;;;;;;5087118;28;20051;-65
2022/06/09 08:40:18;;;;;;;7.68;2.80;;;;;;;;;;5065140;28;20405;-65
2022/06/09 08:43:02;;;;;;;3.35;2.40;;;;;;;;;;5082852;28;20525;-65
2022/06/09 08:45:32;;;;;;;7.47;2.58;;;;;;;;;;5100093;28;20043;-65
2022/06/09 08:47:59;;;;;;;5.30;2.92;;;;;;;;;;5102800;28;20043;-66
2022/06/09 08:50:28;;;;;;;3.90;2.53;;;;;;;;;;5087662;28;20043;-65
2022/06/09 08:53:01;;;;;;;5.03;2.80;;;;;;;;;;5092279;28;20036;-66
2022/06/09 08:55:33;;;;;;;7.30;2.10;;;;;;;;;;5101549;28;20148;-66
2022/06/09 08:58:02;;;;;;;5.50;2.40;;;;;;;;;;5105592;28;20123;-66
2022/06/09 09:00:31;;;;;;;2.85;1.50;;;;;;;;;;5103123;28;20513;-66
2022/06/09 09:03:01;;;;;;;5.00;1.33;;;;;;;;;;5104250;28;20043;-66
2022/06/09 09:05:46;;;;;;;7.53;1.25;;;;;;;;;;5097183;28;20079;-65
2022/06/09 09:08:13;;;;;;;3.28;1.05;;;;;;;;;;5104365;28;20044;-65
2022/06/09 09:10:51;;;;;;;5.70;1.42;;;;;;;;;;5088088;28;20431;-66
2022/06/09 09:13:43;;;;;;;3.30;1.20;;;;;;;;;;5104221;28;20500;-65
2022/06/09 09:16:12;;;;;;;3.05;1.27;;;;;;;;;;5107793;28;20035;-66
2022/06/09 09:18:44;;;;;;;6.82;2.55;;;;;;;;;;5102307;28;20522;-66
2022/06/09 09:21:22;;;;;;;3.20;1.50;;;;;;;;;;5101632;28;20039;-66
2022/06/09 09:23:58;;;;;;;5.15;1.70;;;;;;;;;;5103154;28;20066;-66
2022/06/09 09:26:36;;;;;;;5.05;1.60;;;;;;;;;;5085014;28;20043;-65
2022/06/09 09:29:21;;;;;;;3.38;1.38;;;;;;;;;;5109869;28;20032;-64
2022/06/09 09:31:50;;;;;;;3.72;1.52;;;;;;;;;;5103080;28;20400;-66
2022/06/09 09:34:21;;;;;;;4.22;1.50;;;;;;;;;;5106010;28;20481;-66
2022/06/09 09:36:49;;;;;;;3.30;1.35;;;;;;;;;;5086597;28;20044;-66
2022/06/09 09:39:22;;;;;;;5.63;1.67;;;;;;;;;;5094082;28;20040;-66
2022/06/09 09:41:48;;;;;;;2.95;1.63;;;;;;;;;;5106228;28;20423;-66
2022/06/09 09:44:20;;;;;;;5.10;1.60;;;;;;;;;;5096366;28;20065;-66
2022/06/09 09:47:00;;;;;;;4.72;1.75;;;;;;;;;;5093750;28;20055;-66
2022/06/09 09:49:29;;;;;;;5.05;1.33;;;;;;;;;;5095128;28;20039;-66
2022/06/09 09:51:56;;;;;;;4.25;1.30;;;;;;;;;;5093994;28;20501;-66
2022/06/09 09:54:26;;;;;;;4.38;1.73;;;;;;;;;;5093627;28;20105;-66
2022/06/09 09:57:02;;;;;;;6.63;1.80;;;;;;;;;;5109008;28;20554;-66
2022/06/09 09:59:28;;;;;;;5.60;1.70;;;;;;;;;;5086807;28;20035;-66
2022/06/09 10:10:26;;;;;;;5.20;1.58;;;;;;;;;;5104911;28;20492;-66
2022/06/09 10:12:52;;;;;;;6.90;1.70;;;;;;;;;;5096058;28;20151;-66
2022/06/09 10:15:20;;;;;;;4.07;1.33;;;;;;;;;;5108459;28;20466;-66
2022/06/09 10:17:49;;;;;;;4.68;1.50;;;;;;;;;;5103649;28;20069;-66
2022/06/09 10:20:21;;;;;;;5.78;1.40;;;;;;;;;;5084103;27;20129;-66
2022/06/09 10:22:58;;;;;;;5.30;1.42;;;;;;;;;;5100891;28;20122;-66
2022/06/09 10:25:38;;;;;;;3.65;1.23;;;;;;;;;;5106131;28;20040;-66
2022/06/09 10:28:12;;;;;;;4.75;1.20;;;;;;;;;;5106389;28;20036;-66
2022/06/09 10:30:45;;;;;;;4.50;1.30;;;;;;;;;;5107548;28;20043;-66
2022/06/09 10:33:34;;;;;;;11.70;1.42;;;;;;;;;;5111657;28;20071;-66
2022/06/09 10:36:02;;;;;;;2.28;0.90;;;;;;;;;;5100544;28;20039;-66
2022/06/09 10:38:35;;;;;;;6.72;1.20;;;;;;;;;;5105282;28;20038;-66
2022/06/09 10:41:04;;;;;;;3.67;1.00;;;;;;;;;;5099538;28;20127;-66
2022/06/09 10:43:56;;;;;;;8.20;1.27;;;;;;;;;;5106344;28;20404;-66
2022/06/09 10:46:28;;;;;;;3.53;1.08;;;;;;;;;;5107235;28;20062;-67
2022/06/09 10:57:31;;;;;;;5.53;1.25;;;;;;;;;;5109713;28;20088;-67
2022/06/09 11:00:09;;;;;;;3.58;1.10;;;;;;;;;;5111519;28;20162;-67
2022/06/09 11:02:36;;;;;;;3.83;1.15;;;;;;;;;;5068761;28;20118;-66
2022/06/09 11:05:04;;;;;;;7.50;1.00;;;;;;;;;;5107090;28;20085;-66
2022/06/09 11:07:36;;;;;;;3.85;1.10;;;;;;;;;;5106279;28;20387;-66
2022/06/09 11:10:22;;;;;;;5.50;1.00;;;;;;;;;;5107049;28;20063;-66
2022/06/09 11:13:07;;;;;;;4.30;1.10;;;;;;;;;;5108413;28;20036;-66
2022/06/09 11:15:35;;;;;;;4.70;1.20;;;;;;;;;;5110827;28;20036;-66
2022/06/09 11:18:07;;;;;;;3.80;1.20;;;;;;;;;;5111137;28;20373;-66
2022/06/09 11:20:52;;;;;;;3.95;1.27;;;;;;;;;;5110435;28;20369;-67
2022/06/09 11:23:18;;;;;;;3.25;0.90;;;;;;;;;;5098337;28;20044;-66
2022/06/09 11:25:56;;;;;;;3.30;0.85;;;;;;;;;;5109622;28;20040;-66
2022/06/09 11:28:28;;;;;;;5.28;0.75;;;;;;;;;;5089373;28;20284;-66
2022/06/09 11:31:07;;;;;;;4.10;0.80;;;;;;;;;;5110676;28;20035;-66
2022/06/09 11:33:59;;;;;;;5.13;0.85;;;;;;;;;;5110200;28;20431;-66
2022/06/09 11:36:28;;;;;;;2.78;0.70;;;;;;;;;;5109725;28;20044;-66
2022/06/09 11:39:03;;;;;;;2.33;0.60;;;;;;;;;;5110057;28;20032;-66
2022/06/09 11:41:29;;;;;;;1.52;0.57;;;;;;;;;;5110381;28;20036;-65
2022/06/09 11:43:58;;;;;;;2.80;0.65;;;;;;;;;;5098081;28;20047;-66
2022/06/09 11:46:32;;;;;;;3.08;0.70;;;;;;;;;;5109466;28;20122;-66
2022/06/09 11:48:59;;;;;;;1.60;0.80;;;;;;;;;;5105760;28;20058;-66
2022/06/09 11:51:26;;;;;;;1.95;0.57;;;;;;;;;;5104122;28;20040;-66
2022/06/09 11:53:54;;;;;;;3.75;0.90;;;;;;;;;;5108538;28;20031;-66
2022/06/09 11:56:43;;;;;;;2.95;1.00;;;;;;;;;;5109897;28;20101;-66
2022/06/09 11:59:12;;;;;;;4.38;1.05;;;;;;;;;;5105935;28;20599;-66
2022/06/09 12:01:38;;;;;;;2.17;0.60;;;;;;;;;;5106480;28;20041;-66
2022/06/09 12:04:23;;;;;;;2.95;1.00;;;;;;;;;;5099896;28;20040;-66
2022/06/09 12:06:59;;;;;;;4.85;0.98;;;;;;;;;;5101976;28;20138;-67
2022/06/09 12:09:34;;;;;;;9.77;1.15;;;;;;;;;;5103754;28;20039;-65
2022/06/09 12:12:18;;;;;;;4.68;1.10;;;;;;;;;;5087256;28;20409;-65
2022/06/09 12:14:44;;;;;;;2.00;1.10;;;;;;;;;;5108447;28;20135;-65
2022/06/09 12:17:13;;;;;;;4.75;1.30;;;;;;;;;;5108098;28;20035;-65
2022/06/09 12:20:12;;;;;;;3.67;1.15;;;;;;;;;;5108537;28;20032;-65
2022/06/09 12:22:40;;;;;;;5.22;1.05;;;;;;;;;;5062087;28;20079;-65
2022/06/09 12:25:06;;;;;;;5.13;1.00;;;;;;;;;;5108614;28;20024;-65
2022/06/09 12:27:36;;;;;;;6.38;1.58;;;;;;;;;;5105766;28;20606;-65
2022/06/09 12:30:02;;;;;;;4.55;1.15;;;;;;;;;;5106286;28;20047;-66
2022/06/09 12:32:28;;;;;;;3.50;1.05;;;;;;;;;;5107447;28;20044;-65
2022/06/09 12:34:56;;;;;;;4.00;1.52;;;;;;;;;;5102207;27;20127;-65
2022/06/09 12:37:30;;;;;;;5.90;1.17;;;;;;;;;;5101559;28;20036;-65
2022/06/09 12:40:01;;;;;;;4.82;1.20;;;;;;;;;;5102365;28;20028;-65
2022/06/09 12:42:47;;;;;;;5.63;1.27;;;;;;;;;;5105764;28;20119;-66
2022/06/09 12:45:22;;;;;;;6.32;1.15;;;;;;;;;;5105275;28;20097;-66
2022/06/09 12:47:52;;;;;;;3.35;1.00;;;;;;;;;;5103676;28;20043;-66
2022/06/09 12:50:18;;;;;;;;;;;;;;;;;;5104582;28;20051;-66
2022/06/09 12:52:45;;;;;;;3.92;1.13;;;;;;;;;;5105828;28;19930;-66
2022/06/09 12:55:26;;;;;;;2.03;0.73;;;;;;;;;;5108885;28;20106;-66
2022/06/09 12:57:57;;;;;;;3.90;0.82;;;;;;;;;;5101567;28;20071;-65
2022/06/09 13:00:26;;;;;;;4.68;0.98;;;;;;;;;;5107681;28;20397;-66
2022/06/09 13:02:52;;;;;;;5.55;1.10;;;;;;;;;;5100536;28;20386;-66
2022/06/09 13:05:22;;;;;;;4.82;0.95;;;;;;;;;;5087263;28;20039;-66
2022/06/09 13:07:48;;;;;;;3.47;0.80;;;;;;;;;;5092924;28;20233;-66
2022/06/09 13:10:40;;;;;;;7.95;1.02;;;;;;;;;;5102801;28;20039;-66
2022/06/09 13:13:18;;;;;;;6.10;1.15;;;;;;;;;;5104619;28;20040;-66
2022/06/09 13:15:46;;;;;;;5.25;1.20;;;;;;;;;;5099870;28;20032;-66
2022/06/09 13:18:12;;;;;;;3.83;1.20;;;;;;;;;;5108697;28;20036;-66
2022/06/09 13:20:45;;;;;;;4.05;1.20;;;;;;;;;;5094190;28;20480;-66
2022/06/09 13:23:13;;;;;;;8.07;1.50;;;;;;;;;;5113778;28;20039;-66
2022/06/09 13:25:40;;;;;;;4.68;1.20;;;;;;;;;;5093045;28;20051;-66
2022/06/09 13:28:14;;;;;;;16.40;1.70;;;;;;;;;;5113533;28;20036;-66
2022/06/09 13:30:43;;;;;;;7.95;1.85;;;;;;;;;;5086125;28;20301;-65
2022/06/09 13:33:27;;;;;;;7.35;1.50;;;;;;;;;;5104058;28;20131;-66
2022/06/09 13:36:07;;;;;;;6.50;1.70;;;;;;;;;;5105741;28;20031;-66
2022/06/09 13:38:34;;;;;;;6.00;1.42;;;;;;;;;;5092776;28;20043;-65
2022/06/09 13:41:03;;;;;;;4.40;1.40;;;;;;;;;;5089263;28;20147;-65
2022/06/09 13:43:40;;;;;;;4.15;1.70;;;;;;;;;;5109743;28;20150;-66
2022/06/09 13:46:09;;;;;;;5.57;1.52;;;;;;;;;;5098055;28;20054;-65
2022/06/09 13:48:46;;;;;;;4.10;1.17;;;;;;;;;;5109306;28;20131;-66
2022/06/09 13:51:23;;;;;;;4.68;1.40;;;;;;;;;;5112344;28;20039;-66
2022/06/09 13:53:51;;;;;;;4.63;1.30;;;;;;;;;;5108993;28;20064;-66
2022/06/09 13:56:20;;;;;;;7.85;1.73;;;;;;;;;;5109633;28;20527;-66
2022/06/09 13:58:46;;;;;;;6.28;1.58;;;;;;;;;;5112224;28;20100;-66
2022/06/09 14:01:12;;;;;;;6.00;1.45;;;;;;;;;;5109230;28;20035;-65
2022/06/09 14:03:43;;;;;;;8.25;1.63;;;;;;;;;;5109664;28;20155;-65
2022/06/09 14:06:11;;;;;;;4.67;2.03;;;;;;;;;;5109513;28;20047;-66
2022/06/09 14:08:39;;;;;;;5.13;1.40;;;;;;;;;;5103484;28;20388;-66
2022/06/09 14:11:05;;;;;;;3.85;1.30;;;;;;;;;;5107324;22;20074;-63
2022/06/09 14:13:32;;;;;;;4.88;1.40;;;;;;;;;;5085201;28;20643;-64
2022/06/09 14:15:58;;;;;;;6.32;1.67;;;;;;;;;;5085515;28;20036;-64
2022/06/09 14:18:29;;;;;;;5.13;1.20;;;;;;;;;;5085769;28;20041;-64
2022/06/09 14:20:57;;;;;;;7.90;1.60;;;;;;;;;;5080439;28;20063;-64
2022/06/09 14:23:23;;;;;;;6.53;1.23;;;;;;;;;;5072293;28;20041;-64
2022/06/09 14:25:57;;;;;;;5.38;1.35;;;;;;;;;;5061218;28;20056;-64
2022/06/09 14:28:23;;;;;;;6.40;1.50;;;;;;;;;;5076553;28;20083;-64
2022/06/09 14:30:49;;;;;;;6.75;1.40;;;;;;;;;;5081454;28;20041;-64
2022/06/09 14:33:15;;;;;;;5.95;1.40;;;;;;;;;;5077755;28;20058;-64
2022/06/09 14:35:41;;;;;;;7.68;1.63;;;;;;;;;;5082658;28;20066;-64
2022/06/09 14:38:08;;;;;;;6.35;1.65;;;;;;;;;;5071486;28;20112;-63
2022/06/09 14:40:36;;;;;;;9.30;1.95;;;;;;;;;;5069718;28;20041;-64
2022/06/09 14:43:04;;;;;;;6.80;1.75;;;;;;;;;;5073421;28;20397;-64
2022/06/09 14:45:30;;;;;;;6.28;1.50;;;;;;;;;;5071053;28;20044;-64
2022/06/09 14:47:57;;;;;;;6.88;1.50;;;;;;;;;;5070471;28;20071;-64
2022/06/09 14:50:24;;;;;;;9.18;1.83;;;;;;;;;;5076778;28;20060;-64
2022/06/09 14:52:51;;;;;;;9.75;1.48;;;;;;;;;;5071447;28;20041;-64
2022/06/09 14:55:17;;;;;;;6.88;1.67;;;;;;;;;;5076480;28;20085;-64
2022/06/09 14:57:44;;;;;;;4.90;1.92;;;;;;;;;;5072158;28;20127;-63
2022/06/09 15:00:28;;;;;;;6.22;1.50;;;;;;;;;;5070318;28;20098;-64
2022/06/09 15:02:55;;;;;;;7.00;1.65;;;;;;;;;;5072502;28;20551;-64
2022/06/09 15:05:22;;;;;;;6.60;1.70;;;;;;;;;;5071581;28;20072;-64
2022/06/09 15:07:48;;;;;;;4.60;1.50;;;;;;;;;;5068622;28;20097;-64
2022/06/09 15:10:15;;;;;;;5.63;1.63;;;;;;;;;;5073968;28;20032;-64
2022/06/09 15:12:41;;;;;;;6.75;1.67;;;;;;;;;;5080929;28;20071;-64